Wednesday, September 19, 2018, 2:41 PM EDT
Back to Local

KBWI, Baltimore-washington International

Location: Glen Burnie, MD, United States Lat: 39.167
Local Time: 2:41 PM EDT (18:41 GMT) Lon: -76.683
Time Zone: US/Eastern Elev: 147 ft

Show me the last for .
Show Decoded

2018-09-19 13:54 METAR KBWI 191754Z 35007KT 10SM FEW043 SCT160 SCT250 28/18 A2993 RMK AO2 SLP135
                 T02780178 10289 20217 58001 =
2018-09-19 12:54 METAR KBWI 191654Z 34010KT 10SM SCT038 SCT160 BKN250 29/19 A2993 RMK AO2 SLP135
                 T02890189 =
2018-09-19 11:54 METAR KBWI 191554Z 34010KT 10SM SCT033 SCT160 BKN250 27/19 A2994 RMK AO2 SLP135
                 T02670194 =
2018-09-19 10:54 METAR KBWI 191454Z 01008G15KT 10SM SCT028 SCT160 SCT250 27/19 A2994 RMK AO2
                 SLP136 T02670194 51013 =
2018-09-19 09:54 METAR KBWI 191354Z 34005KT 10SM FEW044 FEW160 SCT250 26/21 A2993 RMK AO2 SLP133
                 T02560206 =
2018-09-19 08:54 METAR KBWI 191254Z 33009G16KT 10SM SCT250 24/20 A2992 RMK AO2 SLP131 T02390200 =
2018-09-19 07:54 METAR KBWI 191154Z 00000KT 10SM BKN250 22/20 A2990 RMK AO2 SLP123 70078
                 T02170200 10217 20194 53017 =
2018-09-19 06:54 METAR KBWI 191054Z 26005KT 10SM SCT250 20/19 A2987 RMK AO2 SLP114 T02000194 =
2018-09-19 05:54 METAR KBWI 190954Z 26004KT 10SM CLR 20/19 A2986 RMK AO2 SLP111 T02000194 =
2018-09-19 04:54 METAR KBWI 190854Z 29003KT 10SM CLR 20/19 A2985 RMK AO2 SLP106 T02000194 53004 =
2018-09-19 03:54 METAR KBWI 190754Z 30004KT 10SM CLR 22/19 A2984 RMK AO2 SLP103 T02170194 =
2018-09-19 02:54 METAR KBWI 190654Z 32003KT 10SM CLR 21/19 A2984 RMK AO2 SLP101 T02110194 =
2018-09-19 01:54 METAR KBWI 190554Z 29004KT 10SM CLR 21/19 A2984 RMK AO2 SLP102 T02060194 10239
                 20206 53001 =
2018-09-19 00:54 METAR KBWI 190454Z 29004KT 10SM CLR 21/19 A2983 RMK AO2 SLP098 T02110194
                 402780206 =
2018-09-18 23:54 METAR KBWI 190354Z 31004KT 10SM CLR 22/19 A2982 RMK AO2 SLP098 T02220194 =
2018-09-18 22:54 METAR KBWI 190254Z 31005KT 10SM CLR 22/19 A2983 RMK AO2 SLP100 T02220194 51009 =
2018-09-18 21:54 METAR KBWI 190154Z 28003KT 10SM CLR 22/21 A2982 RMK AO2 SLP097 T02220206 =
2018-09-18 20:54 METAR KBWI 190054Z 29003KT 10SM FEW036 23/21 A2982 RMK AO2 SLP095 T02280206 =
2018-09-18 19:54 METAR KBWI 182354Z 31003KT 10SM FEW100 24/21 A2980 RMK AO2 SLP091 60000
                 T02390206 10278 20233 53013 =
2018-09-18 18:54 METAR KBWI 182254Z 31004KT 10SM FEW036 SCT100 26/21 A2979 RMK AO2 SLP086
                 T02610206 =
2018-09-18 17:54 METAR KBWI 182154Z 32004KT 10SM FEW038 FEW090 SCT110 28/21 A2977 RMK AO2 SLP080
                 CB DSNT E-SE MOV SE T02780211 =
2018-09-18 16:54 METAR KBWI 182054Z 34004KT 10SM FEW038 BKN090 BKN110 27/21 A2977 RMK AO2 LTG
                 DSNT SE AND S SLP078 60000 T02670211 53002 =
2018-09-18 15:54 METAR KBWI 181954Z 35007KT 10SM FEW035 BKN065 BKN110 26/22 A2975 RMK AO2 LTG
                 DSNT SW SLP074 T02610217 =
2018-09-18 14:54 METAR KBWI 181854Z 34010G18KT 310V010 10SM SCT014 SCT020 BKN034 BKN140 26/22
                 A2976 RMK AO2 LTG DSNT W-NE RAE1757 TSE03 SLP075 P0000 T02560222 =

Support USWX by starting your Amazon purchase here.